Terminal Aerodrome Forecast
Issued by NWS Melbourne, FL

Home | Current Version | Previous Version | Text Only | Print | Product List | Glossary On
Versions: 1 2 3 4 5 6 7 8 9 10 11 12 13 14 15 16 17 18 19 20
000
FTUS42 KMLB 242000 AAA
TAFMLB
TAF AMD
KMLB 242000Z 2420/2518 20010KT P6SM FEW035 SCT040
     FM250100 19005KT P6SM SCT030 BKN250
     FM250800 19004KT 4SM BR BKN012
     FM251500 19009KT P6SM VCSH BKN012=

USA.gov is the U.S. government's official web portal to all federal, state and local government web resources and services.